This is the latest recevied weather packets stored in our database for station/object WB6ANP. If no packets are shown the sender has not sent any weather packets the latest 10 day(s).
| Time | Temp. | Humidity | Pressure | Rain* | Wind** | Luminosity | Snow |
|---|---|---|---|---|---|---|---|
| 1777588058 | 15.56° C | 83% | 1012.6 hPa | 0 mm | - | 170 W/m² | - |
| 1777587754 | 15.56° C | 84% | 1012.8 hPa | 0 mm | - | 141 W/m² | - |
| 1777587453 | 15.56° C | 83% | 1012.8 hPa | 0 mm | - | 141 W/m² | - |
| 1777587151 | 15.56° C | 84% | 1013.1 hPa | 0 mm | - | 93 W/m² | - |
| 1777586845 | 15° C | 85% | 1013 hPa | 0 mm | - | 116 W/m² | - |
| 1777586541 | 15° C | 84% | 1013.4 hPa | 0 mm | - | 78 W/m² | - |
| 1777586237 | 15.56° C | 84% | 1013.3 hPa | 0 mm | - | 45 W/m² | - |
| 1777585935 | 15.56° C | 84% | 1013.1 hPa | 0 mm | - | 47 W/m² | - |
| 1777585630 | 15.56° C | 85% | 1013.3 hPa | 0 mm | - | 47 W/m² | - |
| 1777585325 | 15.56° C | 84% | 1013.2 hPa | 0 mm | - | 45 W/m² | - |
| 1777585020 | 15.56° C | 83% | 1013.1 hPa | 0 mm | - | 56 W/m² | - |
| 1777584717 | 15.56° C | 83% | 1012.9 hPa | 0 mm | - | 124 W/m² | - |
| 1777584415 | 15.56° C | 84% | 1013.1 hPa | 0 mm | - | 106 W/m² | - |
| 1777584111 | 15.56° C | 84% | 1013.4 hPa | 0 mm | - | 109 W/m² | - |
| 1777583810 | 15.56° C | 84% | 1013.5 hPa | 0 mm | - | 129 W/m² | - |
| 1777583506 | 15.56° C | 84% | 1013.5 hPa | 0 mm | - | 163 W/m² | - |
| 1777583199 | 15.56° C | 84% | 1013.8 hPa | 0 mm | - | 113 W/m² | - |
| 1777582894 | 15.56° C | 85% | 1013.6 hPa | 0 mm | - | 95 W/m² | - |
| 1777582592 | 15.56° C | 85% | 1013.8 hPa | 0 mm | - | 81 W/m² | - |
| 1777582287 | 15.56° C | 86% | 1013.6 hPa | 0 mm | - | 100 W/m² | - |
| 1777581985 | 15.56° C | 85% | 1013.5 hPa | 0 mm | - | 109 W/m² | - |
| 1777581680 | 15.56° C | 87% | 1013.4 hPa | 0 mm | - | 146 W/m² | - |
| 1777581375 | 15.56° C | 88% | 1013.7 hPa | 0 mm | - | 120 W/m² | - |
| 1777581069 | 15.56° C | 88% | 1013.7 hPa | 0 mm | - | 144 W/m² | - |
| 1777580769 | 15.56° C | 89% | 1013.8 hPa | 0 mm | - | 123 W/m² | - |
* Rain latest hour (hover to see other rain measurements)
** Current wind speed in m/s (hover to see current wind gust speed)